Time;durP1;ratioP1;P1;durP2;ratioP2;P2;SDS_P1;SDS_P2;PMS_P1;PMS_P2;Temp;Humidity;BMP_temperature;BMP_pressure;BME280_temperature;BME280_humidity;BME280_pressure;Samples;Min_cycle;Max_cycle;Signal;HPM_P1;HPM_P2
2022/07/07 00:00:36;;;;;;;3.40;3.10;;;23.40;37.40;;;;;;5001047;28;20450;-87
2022/07/07 00:03:03;;;;;;;4.47;4.17;;;23.40;38.00;;;;;;5021701;28;20621;-90
2022/07/07 00:05:29;;;;;;;4.83;3.00;;;23.40;37.70;;;;;;5017070;28;20461;-86
2022/07/07 00:07:56;;;;;;;2.73;2.53;;;23.40;37.40;;;;;;4986058;28;20484;-88
2022/07/07 00:10:23;;;;;;;5.43;3.23;;;23.40;36.90;;;;;;5019189;28;20537;-88
2022/07/07 00:12:50;;;;;;;3.07;2.87;;;23.30;37.40;;;;;;5000203;28;20785;-89
2022/07/07 00:15:18;;;;;;;5.60;3.20;;;23.30;37.20;;;;;;5001054;28;20560;-88
2022/07/07 00:17:46;;;;;;;3.10;2.90;;;23.30;37.10;;;;;;5015912;28;20554;-90
2022/07/07 00:20:13;;;;;;;4.13;3.00;;;23.30;37.50;;;;;;5017165;28;20477;-88
2022/07/07 00:22:40;;;;;;;3.80;3.10;;;23.30;37.00;;;;;;5016993;28;20972;-89
2022/07/07 00:25:08;;;;;;;3.70;3.20;;;23.30;37.60;;;;;;5009523;28;20453;-89
2022/07/07 00:27:36;;;;;;;3.33;3.00;;;23.30;37.30;;;;;;5017690;28;21246;-89
2022/07/07 00:30:04;;;;;;;3.70;3.17;;;23.30;37.50;;;;;;4996304;28;20555;-88
2022/07/07 00:32:31;;;;;;;3.40;3.20;;;23.30;37.90;;;;;;5001459;28;20454;-90
2022/07/07 00:35:00;;;;;;;3.07;2.87;;;23.30;37.90;;;;;;4984727;28;20450;-88
2022/07/07 00:37:27;;;;;;;3.10;2.90;;;23.40;37.90;;;;;;5004158;28;20463;-88
2022/07/07 00:39:54;;;;;;;7.33;3.10;;;23.40;38.00;;;;;;5006698;28;20511;-88
2022/07/07 00:42:20;;;;;;;7.23;3.23;;;23.40;37.50;;;;;;5023414;28;21187;-88
2022/07/07 00:44:48;;;;;;;3.13;2.93;;;23.40;37.70;;;;;;5020548;28;20576;-90
2022/07/07 00:47:15;;;;;;;5.10;3.00;;;23.40;37.80;;;;;;4987372;28;20472;-89
2022/07/07 00:49:42;;;;;;;3.20;2.90;;;23.40;38.20;;;;;;5005854;28;20505;-88
2022/07/07 00:52:12;;;;;;;4.00;3.60;;;23.40;38.10;;;;;;5027855;27;21196;-87
2022/07/07 00:54:39;;;;;;;3.23;3.03;;;23.40;38.60;;;;;;4992616;28;20448;-88
2022/07/07 00:57:07;;;;;;;3.63;3.37;;;23.40;38.70;;;;;;5003072;28;20464;-88
2022/07/07 00:59:34;;;;;;;3.50;3.30;;;23.40;38.60;;;;;;4997830;28;20799;-87
2022/07/07 01:02:02;;;;;;;3.63;3.33;;;23.40;38.80;;;;;;4986369;28;20901;-89
2022/07/07 01:04:29;;;;;;;4.33;2.97;;;23.40;39.00;;;;;;5006603;28;20837;-88
2022/07/07 01:06:57;;;;;;;4.90;3.97;;;23.40;39.00;;;;;;5003264;28;20468;-88
2022/07/07 01:09:25;;;;;;;6.43;3.30;;;23.30;39.00;;;;;;5021125;28;20482;-88
2022/07/07 01:11:54;;;;;;;4.13;3.80;;;23.30;39.30;;;;;;5025822;28;20477;-88
2022/07/07 01:14:23;;;;;;;3.70;3.40;;;23.30;39.10;;;;;;5012926;27;22263;-88
2022/07/07 01:16:50;;;;;;;5.23;4.00;;;23.30;39.60;;;;;;5018423;27;20600;-89
2022/07/07 01:19:19;;;;;;;3.73;3.43;;;23.30;39.40;;;;;;5010316;28;21263;-89
2022/07/07 01:21:52;;;;;;;3.40;3.20;;;23.30;39.40;;;;;;4996351;28;20451;-88
2022/07/07 01:24:22;;;;;;;3.73;3.50;;;23.30;39.90;;;;;;5011000;27;20458;-88
2022/07/07 01:26:49;;;;;;;3.70;3.40;;;23.30;39.70;;;;;;5015460;28;20478;-90
2022/07/07 01:29:16;;;;;;;4.10;3.80;;;23.30;39.70;;;;;;5020148;28;20445;-89
2022/07/07 01:31:43;;;;;;;3.87;3.57;;;23.30;39.80;;;;;;5023962;28;20457;-89
2022/07/07 01:34:10;;;;;;;3.83;3.53;;;23.30;40.00;;;;;;5020756;28;20458;-88
2022/07/07 01:36:37;;;;;;;4.13;3.27;;;23.20;39.90;;;;;;5020356;28;20470;-90
2022/07/07 01:39:04;;;;;;;3.03;2.83;;;23.30;40.30;;;;;;5020480;27;20489;-89
2022/07/07 01:41:32;;;;;;;3.43;3.13;;;23.30;40.00;;;;;;5020338;28;20445;-90
2022/07/07 01:43:59;;;;;;;6.27;3.23;;;23.20;40.10;;;;;;5027581;27;20972;-89
2022/07/07 01:46:26;;;;;;;3.97;3.60;;;23.20;40.10;;;;;;5018443;28;20924;-88
2022/07/07 01:48:53;;;;;;;4.53;3.60;;;23.20;39.50;;;;;;5002696;28;20469;-87
2022/07/07 01:51:20;;;;;;;5.57;2.90;;;23.00;38.80;;;;;;5021447;28;20482;-88
2022/07/07 01:53:47;;;;;;;2.73;2.53;;;23.00;39.40;;;;;;5002810;28;20457;-88
2022/07/07 01:56:14;;;;;;;3.70;3.40;;;23.10;39.30;;;;;;5020328;28;20997;-89
2022/07/07 01:58:43;;;;;;;5.40;2.80;;;23.00;38.70;;;;;;5021271;28;21227;-88
2022/07/07 02:01:13;;;;;;;5.43;2.50;;;23.00;38.60;;;;;;5021353;28;20447;-89
2022/07/07 02:03:40;;;;;;;3.93;3.53;;;23.00;38.00;;;;;;5024323;27;20454;-89
2022/07/07 02:06:07;;;;;;;4.47;2.70;;;22.90;38.30;;;;;;5003304;28;20478;-88
2022/07/07 02:08:34;;;;;;;5.20;2.63;;;22.90;38.40;;;;;;5019664;28;20507;-89
2022/07/07 02:11:14;;;;;;;3.73;2.50;;;22.90;38.80;;;;;;5022350;28;21000;-88
2022/07/07 02:13:43;;;;;;;2.90;2.70;;;22.90;38.00;;;;;;5004903;28;20578;-90
2022/07/07 02:16:11;;;;;;;3.13;2.93;;;22.90;38.60;;;;;;5019057;27;20597;-88
2022/07/07 02:18:39;;;;;;;3.03;2.60;;;22.90;38.50;;;;;;5002907;28;20478;-88
2022/07/07 02:21:08;;;;;;;2.80;2.60;;;23.00;38.50;;;;;;5020746;27;20473;-88
2022/07/07 02:23:35;;;;;;;4.63;3.57;;;23.00;38.40;;;;;;5021116;28;20447;-88
2022/07/07 02:26:03;;;;;;;3.90;3.10;;;23.00;38.20;;;;;;5023066;27;20485;-88
2022/07/07 02:28:30;;;;;;;3.67;3.37;;;23.00;37.70;;;;;;5016837;28;20466;-87
2022/07/07 02:30:59;;;;;;;3.33;2.70;;;23.00;38.30;;;;;;5018769;28;20466;-88
2022/07/07 02:33:27;;;;;;;3.60;3.30;;;23.00;38.50;;;;;;5020468;28;20451;-88
2022/07/07 02:35:55;;;;;;;4.00;2.60;;;22.90;38.40;;;;;;5001114;28;20467;-88
2022/07/07 02:38:22;;;;;;;4.10;2.37;;;23.00;38.50;;;;;;5023110;27;21216;-88
2022/07/07 02:40:50;;;;;;;4.00;3.07;;;23.00;38.60;;;;;;5018215;27;20554;-88
2022/07/07 02:43:18;;;;;;;2.97;2.77;;;23.00;38.50;;;;;;5018490;28;20442;-87
2022/07/07 02:45:46;;;;;;;3.53;2.90;;;22.80;38.90;;;;;;5017259;28;20478;-89
2022/07/07 02:48:16;;;;;;;7.87;3.20;;;22.80;39.10;;;;;;5021172;28;20462;-87
2022/07/07 02:50:43;;;;;;;3.10;2.90;;;22.90;39.40;;;;;;5035101;27;20553;-88
2022/07/07 02:53:12;;;;;;;2.83;2.63;;;22.90;39.50;;;;;;5021455;28;20556;-88
2022/07/07 02:55:40;;;;;;;3.80;2.77;;;23.00;39.60;;;;;;5020377;28;20447;-88
2022/07/07 02:58:08;;;;;;;3.23;3.03;;;23.00;39.50;;;;;;5017032;28;20996;-88
2022/07/07 03:00:35;;;;;;;6.03;3.10;;;23.00;39.70;;;;;;5022641;27;20454;-89
2022/07/07 03:03:04;;;;;;;2.90;2.70;;;23.00;39.70;;;;;;5013373;27;20451;-89
2022/07/07 03:05:33;;;;;;;6.77;3.23;;;23.00;40.10;;;;;;5013313;27;20455;-89
2022/07/07 03:08:00;;;;;;;5.13;3.30;;;23.00;40.00;;;;;;5025347;27;20486;-89
2022/07/07 03:10:27;;;;;;;3.63;3.17;;;23.00;39.80;;;;;;5017077;28;20544;-87
2022/07/07 03:12:54;;;;;;;3.27;2.97;;;23.00;40.00;;;;;;5017375;28;20446;-88
2022/07/07 03:15:22;;;;;;;4.40;3.50;;;23.00;40.40;;;;;;5016164;28;20458;-88
2022/07/07 03:17:51;;;;;;;3.10;2.80;;;23.00;40.40;;;;;;5005836;27;20572;-89
2022/07/07 03:20:19;;;;;;;4.90;3.00;;;23.00;40.70;;;;;;4984403;28;20443;-88
2022/07/07 03:22:48;;;;;;;3.50;3.30;;;23.00;40.80;;;;;;5019550;28;20863;-88
2022/07/07 03:25:15;;;;;;;3.70;3.40;;;23.00;40.80;;;;;;5011793;27;20442;-88
2022/07/07 03:27:42;;;;;;;3.60;3.30;;;23.00;41.30;;;;;;5020075;28;20483;-89
2022/07/07 03:30:10;;;;;;;3.10;2.90;;;23.00;41.20;;;;;;4990292;28;20485;-89
2022/07/07 03:32:37;;;;;;;3.90;2.63;;;23.00;40.90;;;;;;5021781;27;20946;-90
2022/07/07 03:35:08;;;;;;;7.63;3.07;;;23.00;40.70;;;;;;5019465;28;20458;-88
2022/07/07 03:37:35;;;;;;;3.43;3.13;;;22.90;41.00;;;;;;5018112;28;20481;-87
2022/07/07 03:40:04;;;;;;;3.00;2.80;;;22.90;40.60;;;;;;5018024;28;20961;-87
2022/07/07 03:42:31;;;;;;;3.00;2.80;;;22.90;40.60;;;;;;5018346;28;20442;-90
2022/07/07 03:44:58;;;;;;;3.30;3.00;;;23.00;40.60;;;;;;5017656;28;20487;-89
2022/07/07 03:47:25;;;;;;;3.43;3.13;;;22.90;40.20;;;;;;5018078;28;20523;-88
2022/07/07 03:49:52;;;;;;;3.20;2.70;;;22.90;40.10;;;;;;5017995;28;21137;-88
2022/07/07 03:52:19;;;;;;;2.93;2.73;;;22.80;40.30;;;;;;5069319;28;20491;-89
2022/07/07 03:54:46;;;;;;;3.10;2.70;;;22.80;40.10;;;;;;5000406;28;20447;-89
2022/07/07 03:57:14;;;;;;;3.23;2.60;;;22.80;40.10;;;;;;5004534;28;20543;-89
2022/07/07 03:59:41;;;;;;;2.77;2.57;;;22.80;40.00;;;;;;5020954;28;20510;-88
2022/07/07 04:02:09;;;;;;;3.70;2.60;;;22.90;40.80;;;;;;5019891;28;20699;-88
2022/07/07 04:04:36;;;;;;;2.77;2.57;;;22.80;39.90;;;;;;5026628;27;21006;-88
2022/07/07 04:07:04;;;;;;;3.03;2.80;;;22.80;40.20;;;;;;5016282;28;20514;-88
2022/07/07 04:09:31;;;;;;;2.70;2.53;;;22.90;40.10;;;;;;5024271;28;20462;-89
2022/07/07 04:11:58;;;;;;;2.67;2.50;;;22.90;40.60;;;;;;5003578;28;21119;-89
2022/07/07 04:14:26;;;;;;;2.73;2.63;;;23.00;40.50;;;;;;5030768;27;20566;-89
2022/07/07 04:16:53;;;;;;;3.17;2.97;;;23.00;40.50;;;;;;4992139;28;20503;-88
2022/07/07 04:19:20;;;;;;;5.10;2.97;;;23.00;40.40;;;;;;5006863;28;20560;-89
2022/07/07 04:21:47;;;;;;;3.10;2.43;;;23.00;40.30;;;;;;5025089;28;20934;-89
2022/07/07 04:24:14;;;;;;;3.43;2.93;;;23.00;40.50;;;;;;5022121;27;20880;-89
2022/07/07 04:26:41;;;;;;;2.70;2.50;;;23.00;41.00;;;;;;5009835;28;20474;-89
2022/07/07 04:29:09;;;;;;;4.63;3.00;;;23.00;41.10;;;;;;5004714;28;20464;-88
2022/07/07 04:31:39;;;;;;;2.93;2.73;;;23.10;41.20;;;;;;5004191;28;20478;-90
2022/07/07 04:34:06;;;;;;;2.97;2.73;;;23.10;40.90;;;;;;4981607;28;20500;-88
2022/07/07 04:36:33;;;;;;;2.70;2.50;;;23.10;41.00;;;;;;5024305;27;20972;-89
2022/07/07 04:39:00;;;;;;;3.30;3.00;;;23.10;41.10;;;;;;5021175;28;21005;-89
2022/07/07 04:41:27;;;;;;;7.53;2.90;;;23.10;41.10;;;;;;5022653;28;20456;-88
2022/07/07 04:43:54;;;;;;;3.00;2.80;;;23.20;41.30;;;;;;5022202;28;21047;-86
2022/07/07 04:46:21;;;;;;;3.20;2.50;;;23.10;40.30;;;;;;4988007;28;20474;-88
2022/07/07 04:48:50;;;;;;;5.63;3.30;;;23.10;40.50;;;;;;5020594;28;21004;-87
2022/07/07 04:51:17;;;;;;;3.57;3.27;;;22.90;40.60;;;;;;5021755;28;20526;-89
2022/07/07 04:53:44;;;;;;;3.63;3.13;;;23.00;41.10;;;;;;5003477;28;20461;-89
2022/07/07 04:56:11;;;;;;;3.83;2.57;;;23.00;41.00;;;;;;5007457;28;20518;-89
2022/07/07 04:58:38;;;;;;;3.53;2.50;;;23.10;40.80;;;;;;5004267;28;20438;-89
2022/07/07 05:01:05;;;;;;;2.97;2.77;;;23.10;40.40;;;;;;5023072;28;20957;-89
2022/07/07 05:03:32;;;;;;;6.03;2.40;;;23.00;40.40;;;;;;5021356;28;20449;-88
2022/07/07 05:06:00;;;;;;;2.20;2.03;;;23.00;40.30;;;;;;5006128;28;20894;-90
2022/07/07 05:08:29;;;;;;;2.53;2.30;;;22.90;39.80;;;;;;5023512;28;20458;-89
2022/07/07 05:10:57;;;;;;;4.93;2.20;;;22.90;39.60;;;;;;5005241;28;20574;-88
2022/07/07 05:13:23;;;;;;;2.97;2.57;;;22.90;39.20;;;;;;5020796;28;20476;-89
2022/07/07 05:15:50;;;;;;;2.10;2.00;;;22.90;39.80;;;;;;5017900;27;20466;-89
2022/07/07 05:18:18;;;;;;;2.60;2.40;;;23.00;39.80;;;;;;5021264;27;20465;-90
2022/07/07 05:20:45;;;;;;;2.20;2.10;;;23.00;39.60;;;;;;5015090;28;20441;-88
2022/07/07 05:23:13;;;;;;;2.67;2.43;;;22.90;39.40;;;;;;5026797;27;20451;-89
2022/07/07 05:25:40;;;;;;;2.03;1.87;;;22.80;39.90;;;;;;5020176;27;20446;-88
2022/07/07 05:28:07;;;;;;;3.07;2.30;;;22.90;39.60;;;;;;4990182;28;20961;-88
2022/07/07 05:30:34;;;;;;;2.80;2.33;;;22.90;39.40;;;;;;5020495;28;20507;-89
2022/07/07 05:33:01;;;;;;;11.33;2.63;;;22.80;39.50;;;;;;5020667;28;20465;-89
2022/07/07 05:35:28;;;;;;;2.20;2.10;;;22.50;39.70;;;;;;5002798;28;20437;-89
2022/07/07 05:37:55;;;;;;;2.13;2.03;;;22.70;39.70;;;;;;5020647;28;20455;-89
2022/07/07 05:40:24;;;;;;;2.33;2.23;;;22.80;39.50;;;;;;5025495;27;20458;-90
2022/07/07 05:42:50;;;;;;;4.70;2.43;;;22.80;39.40;;;;;;5020526;27;20447;-89
2022/07/07 05:45:18;;;;;;;4.23;2.23;;;22.80;39.30;;;;;;5019719;27;20466;-88
2022/07/07 05:47:44;;;;;;;5.33;2.13;;;22.90;40.00;;;;;;5024059;27;20477;-89
2022/07/07 05:50:11;;;;;;;2.70;2.30;;;23.00;39.30;;;;;;5023527;27;20463;-88
2022/07/07 05:52:39;;;;;;;2.67;2.47;;;23.00;39.20;;;;;;5022561;28;20465;-88
2022/07/07 05:55:07;;;;;;;2.33;2.13;;;23.00;39.30;;;;;;5033196;27;20478;-88
2022/07/07 05:57:35;;;;;;;2.30;2.17;;;23.10;39.40;;;;;;5025925;27;20513;-90
2022/07/07 06:00:02;;;;;;;2.40;2.20;;;23.20;39.40;;;;;;5023012;28;20952;-87
2022/07/07 06:02:38;;;;;;;2.50;2.30;;;23.20;38.70;;;;;;5022485;28;20435;-89
2022/07/07 06:05:06;;;;;;;3.03;2.30;;;23.30;38.50;;;;;;5025074;27;20454;-89
2022/07/07 06:07:33;;;;;;;2.90;2.07;;;22.90;39.00;;;;;;4998244;28;20498;-88
2022/07/07 06:10:00;;;;;;;2.57;2.37;;;22.80;39.00;;;;;;5023201;28;21264;-89
2022/07/07 06:12:27;;;;;;;2.50;2.30;;;22.50;39.20;;;;;;4993737;27;21099;-88
2022/07/07 06:14:55;;;;;;;3.20;2.70;;;22.30;39.00;;;;;;5022895;28;20470;-88
2022/07/07 06:17:22;;;;;;;5.53;2.57;;;22.60;40.70;;;;;;5019282;28;20486;-88
2022/07/07 06:19:49;;;;;;;2.43;2.23;;;22.70;39.20;;;;;;5011006;27;20473;-88
2022/07/07 06:22:16;;;;;;;2.23;2.03;;;22.70;39.80;;;;;;5028933;27;20446;-88
2022/07/07 06:24:43;;;;;;;2.90;2.30;;;22.70;39.40;;;;;;5005340;28;20451;-89
2022/07/07 06:27:10;;;;;;;8.63;2.27;;;22.70;39.60;;;;;;5006873;28;20478;-88
2022/07/07 06:29:37;;;;;;;3.40;2.03;;;22.90;39.40;;;;;;5007670;28;20476;-88
2022/07/07 06:32:06;;;;;;;2.43;2.23;;;22.80;38.70;;;;;;5023843;27;20482;-88
2022/07/07 06:34:33;;;;;;;9.37;2.07;;;22.80;39.40;;;;;;4995864;28;20865;-88
2022/07/07 06:37:00;;;;;;;2.50;2.30;;;23.00;39.30;;;;;;5023445;28;20481;-89
2022/07/07 06:39:27;;;;;;;3.70;2.23;;;23.20;38.70;;;;;;5006928;28;20809;-89
2022/07/07 06:41:54;;;;;;;5.33;2.43;;;23.10;38.90;;;;;;5005273;28;20504;-88
2022/07/07 06:44:21;;;;;;;2.80;2.60;;;23.10;39.00;;;;;;4987263;28;20447;-88
2022/07/07 06:46:48;;;;;;;2.37;2.20;;;23.20;39.10;;;;;;5007370;28;20484;-89
2022/07/07 06:49:16;;;;;;;3.10;2.10;;;23.30;38.70;;;;;;5011104;27;20964;-88
2022/07/07 06:51:43;;;;;;;2.33;2.13;;;23.50;39.30;;;;;;5003457;28;20559;-89
2022/07/07 06:54:10;;;;;;;1.90;1.80;;;23.70;38.30;;;;;;5013222;27;20482;-90
2022/07/07 06:56:37;;;;;;;2.30;2.10;;;23.80;38.40;;;;;;5024300;28;20577;-88
2022/07/07 06:59:04;;;;;;;2.40;2.20;;;23.70;38.50;;;;;;5015212;28;20482;-89
2022/07/07 07:01:31;;;;;;;5.93;2.53;;;23.70;38.30;;;;;;4996674;27;20455;-88
2022/07/07 07:03:58;;;;;;;4.50;2.10;;;23.70;38.60;;;;;;5005468;28;20506;-87
2022/07/07 07:06:28;;;;;;;3.67;2.33;;;23.50;39.10;;;;;;5021006;28;20509;-89
2022/07/07 07:08:55;;;;;;;4.20;1.93;;;23.70;39.60;;;;;;4990873;28;20466;-88
2022/07/07 07:11:22;;;;;;;4.03;2.10;;;23.80;39.40;;;;;;4994023;28;20490;-88
2022/07/07 07:13:49;;;;;;;2.23;2.10;;;23.90;39.70;;;;;;5020639;28;20886;-88
2022/07/07 07:16:16;;;;;;;4.13;2.60;;;23.90;39.30;;;;;;5008167;28;20460;-89
2022/07/07 07:18:43;;;;;;;3.40;1.87;;;23.90;39.70;;;;;;4994629;27;20454;-89
2022/07/07 07:21:12;;;;;;;3.20;2.13;;;23.80;39.80;;;;;;5019822;28;21290;-88
2022/07/07 07:23:40;;;;;;;3.03;2.40;;;23.80;40.00;;;;;;5020887;28;20450;-89
2022/07/07 07:26:09;;;;;;;4.10;2.07;;;23.90;40.20;;;;;;5022339;28;20469;-90
2022/07/07 07:28:36;;;;;;;5.27;2.47;;;23.70;40.20;;;;;;5002121;28;20540;-90
2022/07/07 07:31:04;;;;;;;4.20;2.40;;;23.60;40.60;;;;;;4998240;28;20471;-89
2022/07/07 07:33:31;;;;;;;3.00;2.67;;;23.40;40.70;;;;;;5020856;28;20474;-87
2022/07/07 07:35:59;;;;;;;2.30;2.10;;;23.30;41.60;;;;;;5023011;28;20496;-87
2022/07/07 07:38:26;;;;;;;3.40;2.67;;;23.10;43.10;;;;;;5024913;27;20454;-88
2022/07/07 07:40:54;;;;;;;2.90;2.60;;;22.60;45.30;;;;;;5030405;27;20931;-88
2022/07/07 07:43:21;;;;;;;3.50;2.60;;;22.30;48.60;;;;;;4986049;28;20450;-88
2022/07/07 07:45:48;;;;;;;4.13;3.70;;;21.60;50.60;;;;;;4981902;28;20451;-88
2022/07/07 07:48:15;;;;;;;3.30;3.00;;;21.40;52.80;;;;;;4993279;28;20453;-88
2022/07/07 07:50:42;;;;;;;3.63;3.33;;;21.20;53.00;;;;;;4986512;28;21326;-88
2022/07/07 07:53:09;;;;;;;3.20;2.97;;;21.20;53.20;;;;;;5005425;28;20571;-87
2022/07/07 07:55:37;;;;;;;4.90;3.20;;;21.30;53.20;;;;;;5006997;28;20511;-88
2022/07/07 07:58:05;;;;;;;3.60;3.40;;;21.40;52.80;;;;;;5004405;28;20462;-88
2022/07/07 08:00:32;;;;;;;3.13;2.83;;;21.60;53.00;;;;;;5005892;28;20455;-88
2022/07/07 08:02:59;;;;;;;5.83;3.23;;;21.80;52.50;;;;;;5019696;28;21055;-88
2022/07/07 08:05:27;;;;;;;3.60;3.27;;;22.00;51.50;;;;;;5023448;28;20530;-88
2022/07/07 08:07:53;;;;;;;3.33;3.03;;;22.10;51.00;;;;;;4986643;28;20839;-88
2022/07/07 08:10:21;;;;;;;2.97;2.77;;;22.10;51.30;;;;;;4990289;28;20521;-87
2022/07/07 08:12:49;;;;;;;2.87;2.63;;;22.30;50.90;;;;;;5002843;28;21173;-88
2022/07/07 08:15:18;;;;;;;5.03;2.63;;;22.40;50.20;;;;;;5002962;28;20541;-88
2022/07/07 08:17:45;;;;;;;3.83;2.83;;;22.60;49.80;;;;;;5012341;28;20602;-88
2022/07/07 08:20:12;;;;;;;3.73;2.50;;;22.80;49.30;;;;;;5002985;28;20444;-88
2022/07/07 08:22:39;;;;;;;3.37;3.07;;;23.10;48.90;;;;;;5009452;28;20510;-87
2022/07/07 08:25:07;;;;;;;3.90;2.90;;;23.20;48.10;;;;;;5020062;28;20461;-88
2022/07/07 08:27:34;;;;;;;4.00;2.57;;;23.40;47.70;;;;;;5006001;28;20479;-88
2022/07/07 08:30:01;;;;;;;2.93;2.73;;;23.50;47.30;;;;;;5020886;28;20507;-88
2022/07/07 08:32:29;;;;;;;4.70;3.00;;;23.50;46.90;;;;;;5019316;28;20474;-88
2022/07/07 08:34:56;;;;;;;4.27;2.87;;;23.40;47.70;;;;;;5003709;28;20457;-88
2022/07/07 08:37:23;;;;;;;4.67;3.13;;;23.70;47.90;;;;;;4999171;28;20482;-88
2022/07/07 08:39:50;;;;;;;3.30;2.60;;;23.90;47.10;;;;;;5002141;28;20457;-88
2022/07/07 08:42:18;;;;;;;2.93;2.63;;;24.20;46.40;;;;;;5015295;28;20481;-88
2022/07/07 08:44:45;;;;;;;2.10;2.00;;;24.40;45.50;;;;;;5001376;28;20454;-89
2022/07/07 08:47:12;;;;;;;2.97;2.40;;;24.50;45.70;;;;;;5001586;28;20502;-87
2022/07/07 08:49:40;;;;;;;3.33;2.93;;;24.60;45.10;;;;;;5018519;28;20451;-88
2022/07/07 08:52:08;;;;;;;3.37;2.27;;;24.70;45.10;;;;;;5020493;28;20494;-89
2022/07/07 08:54:38;;;;;;;3.27;2.47;;;24.90;44.60;;;;;;5017074;28;21129;-87
2022/07/07 08:57:06;;;;;;;2.40;2.30;;;24.80;45.10;;;;;;5003749;28;21073;-89
2022/07/07 08:59:33;;;;;;;3.40;2.10;;;24.80;45.00;;;;;;5020135;28;20899;-88
2022/07/07 09:02:02;;;;;;;2.90;2.60;;;24.80;44.90;;;;;;5022100;27;20511;-87
2022/07/07 09:04:29;;;;;;;4.30;2.43;;;24.70;44.50;;;;;;5021946;28;20473;-86
2022/07/07 09:06:59;;;;;;;3.50;2.00;;;24.60;45.10;;;;;;5007026;28;20475;-87
2022/07/07 09:09:39;;;;;;;4.07;2.60;;;24.70;46.00;;;;;;5020946;28;20813;-87
2022/07/07 09:12:08;;;;;;;2.10;1.90;;;24.50;45.20;;;;;;5006393;28;20470;-87
2022/07/07 09:14:37;;;;;;;6.93;2.50;;;24.50;46.10;;;;;;5004658;28;20895;-88
2022/07/07 09:17:14;;;;;;;4.63;2.60;;;24.60;44.90;;;;;;5004245;28;20473;-88
2022/07/07 09:19:42;;;;;;;2.70;2.23;;;24.40;45.20;;;;;;5023362;27;20457;-88
2022/07/07 09:22:10;;;;;;;2.63;2.33;;;24.30;45.50;;;;;;5021449;28;20451;-88
2022/07/07 09:24:55;;;;;;;2.30;2.10;;;24.40;45.70;;;;;;4988958;28;20930;-87
2022/07/07 09:27:22;;;;;;;2.57;2.37;;;24.10;45.20;;;;;;5003938;28;20493;-90
2022/07/07 09:29:49;;;;;;;2.30;2.10;;;24.10;46.30;;;;;;5005505;28;20511;-87
2022/07/07 09:32:16;;;;;;;5.40;2.20;;;24.00;46.40;;;;;;5020660;28;20485;-87
2022/07/07 09:34:43;;;;;;;14.83;2.57;;;24.10;46.30;;;;;;5027026;27;20864;-88
2022/07/07 09:39:58;;;;;;;2.53;2.33;;;24.10;46.10;;;;;;5005316;28;20824;-88
2022/07/07 09:42:27;;;;;;;2.47;2.27;;;24.10;46.70;;;;;;5021031;28;20450;-88
2022/07/07 09:44:56;;;;;;;4.17;2.20;;;24.20;45.90;;;;;;5002332;28;20454;-88
2022/07/07 09:47:25;;;;;;;2.43;2.23;;;24.30;46.10;;;;;;5021970;27;20473;-88
2022/07/07 09:50:00;;;;;;;3.63;2.10;;;24.20;45.80;;;;;;5022162;28;20454;-88
2022/07/07 09:52:29;;;;;;;6.77;2.20;;;24.10;46.20;;;;;;5022420;27;21094;-89
2022/07/07 09:54:58;;;;;;;3.70;2.20;;;24.10;46.90;;;;;;5022105;28;20480;-88
2022/07/07 09:57:25;;;;;;;2.30;2.10;;;24.30;46.50;;;;;;5021843;27;20489;-89
2022/07/07 09:59:52;;;;;;;3.67;2.20;;;24.20;46.40;;;;;;5022134;28;20500;-88
2022/07/07 10:02:22;;;;;;;4.10;2.27;;;24.40;47.30;;;;;;5026108;27;20831;-88
2022/07/07 10:04:51;;;;;;;2.23;2.00;;;24.70;47.20;;;;;;5001803;28;20457;-88
2022/07/07 10:07:20;;;;;;;2.50;2.23;;;24.80;47.40;;;;;;5008161;28;20485;-88
2022/07/07 10:09:52;;;;;;;2.60;2.40;;;24.50;47.60;;;;;;5028369;27;20458;-88
2022/07/07 10:12:24;;;;;;;5.10;2.50;;;24.00;48.30;;;;;;5031460;27;20454;-88
2022/07/07 10:14:54;;;;;;;4.90;2.50;;;24.00;49.20;;;;;;5007145;28;20825;-87
2022/07/07 10:17:22;;;;;;;2.87;2.10;;;24.00;48.80;;;;;;5024758;27;20482;-88
2022/07/07 10:19:49;;;;;;;2.70;2.50;;;23.70;49.20;;;;;;5013631;27;20481;-88
2022/07/07 10:22:17;;;;;;;2.50;2.30;;;23.80;50.20;;;;;;5022753;27;20450;-88
2022/07/07 10:24:44;;;;;;;2.97;2.10;;;23.90;50.40;;;;;;5027156;27;20460;-90
2022/07/07 10:27:16;;;;;;;2.40;2.20;;;23.80;50.70;;;;;;5021676;27;21004;-88
2022/07/07 10:29:44;;;;;;;2.67;2.37;;;23.80;51.60;;;;;;5021301;28;20500;-88
2022/07/07 10:32:13;;;;;;;2.77;2.57;;;23.70;52.20;;;;;;5023850;28;20451;-88
2022/07/07 10:34:48;;;;;;;4.30;2.73;;;23.50;53.30;;;;;;5003280;28;20847;-88
2022/07/07 10:37:15;;;;;;;2.77;2.57;;;23.60;54.40;;;;;;5026759;27;20472;-90
2022/07/07 10:39:45;;;;;;;3.30;3.03;;;23.50;53.90;;;;;;5015651;27;20457;-89
2022/07/07 10:42:51;;;;;;;3.77;3.00;;;23.40;55.40;;;;;;4987412;28;20447;-90
2022/07/07 10:45:19;;;;;;;4.13;3.20;;;23.10;56.10;;;;;;5021471;27;20453;-89
2022/07/07 10:47:46;;;;;;;3.37;3.07;;;23.00;56.50;;;;;;5012818;28;20450;-90
2022/07/07 10:50:34;;;;;;;3.90;3.60;;;23.30;56.90;;;;;;5008424;28;20807;-89
2022/07/07 10:53:01;;;;;;;3.93;3.53;;;23.30;56.10;;;;;;5011934;27;21014;-89
2022/07/07 10:55:54;;;;;;;4.30;3.33;;;23.20;56.60;;;;;;5003123;28;20438;-89
2022/07/07 10:58:59;;;;;;;3.47;3.20;;;23.40;56.60;;;;;;5025619;28;20470;-90
2022/07/07 11:01:29;;;;;;;3.53;3.23;;;23.50;56.60;;;;;;5025590;28;20454;-89
2022/07/07 11:03:56;;;;;;;3.53;3.23;;;23.60;57.20;;;;;;5005882;28;20954;-89
2022/07/07 11:06:23;;;;;;;7.67;3.70;;;23.70;56.20;;;;;;4991004;28;21005;-91
2022/07/07 11:09:01;;;;;;;3.53;3.23;;;23.60;56.90;;;;;;5012343;28;20433;-89
2022/07/07 11:11:29;;;;;;;5.10;3.77;;;23.50;57.10;;;;;;5008764;28;20786;-90
2022/07/07 11:14:09;;;;;;;9.80;4.13;;;23.30;57.80;;;;;;5027696;28;21554;-90
2022/07/07 11:16:36;;;;;;;8.60;4.90;;;22.90;58.90;;;;;;5018501;28;20494;-89
2022/07/07 11:19:05;;;;;;;6.90;4.70;;;22.40;59.30;;;;;;5020743;28;20453;-89
2022/07/07 11:21:38;;;;;;;5.73;4.90;;;22.20;60.60;;;;;;5025866;27;20462;-89
2022/07/07 11:24:15;;;;;;;5.60;4.93;;;22.30;60.80;;;;;;5017087;27;20977;-89
2022/07/07 11:26:42;;;;;;;5.57;4.57;;;22.20;61.50;;;;;;5023045;28;20474;-90
2022/07/07 11:29:11;;;;;;;7.90;4.90;;;22.30;62.00;;;;;;5019731;28;20455;-91
2022/07/07 11:31:38;;;;;;;5.93;4.30;;;22.40;61.90;;;;;;5023725;28;20533;-90
2022/07/07 11:34:05;;;;;;;4.23;3.83;;;22.50;61.30;;;;;;5022240;28;20482;-89
2022/07/07 11:36:32;;;;;;;5.63;4.23;;;22.50;60.70;;;;;;5024026;27;20475;-89
2022/07/07 11:39:02;;;;;;;5.50;3.77;;;22.50;60.70;;;;;;5004870;28;20462;-90
2022/07/07 11:41:40;;;;;;;6.30;3.80;;;22.50;61.40;;;;;;5013311;27;20455;-86
2022/07/07 11:44:07;;;;;;;5.20;4.10;;;22.50;60.90;;;;;;5029176;27;20458;-89
2022/07/07 11:46:36;;;;;;;3.83;3.53;;;22.60;61.00;;;;;;5023731;28;20519;-89
2022/07/07 11:49:03;;;;;;;3.97;3.60;;;22.80;60.60;;;;;;5002140;28;20495;-88
2022/07/07 11:51:30;;;;;;;4.20;3.57;;;23.00;59.60;;;;;;5018936;28;20458;-90
2022/07/07 11:53:59;;;;;;;3.70;3.40;;;23.10;60.20;;;;;;5020363;28;20470;-90
2022/07/07 11:56:30;;;;;;;4.77;3.67;;;23.20;59.40;;;;;;5022037;28;20455;-90
2022/07/07 11:58:59;;;;;;;3.77;3.47;;;23.00;60.20;;;;;;5018889;28;20446;-89
2022/07/07 12:01:30;;;;;;;3.83;3.43;;;23.00;60.60;;;;;;5021181;28;20549;-89
2022/07/07 12:03:58;;;;;;;5.07;3.80;;;23.10;60.50;;;;;;5021646;28;20446;-89
2022/07/07 12:06:27;;;;;;;3.00;2.80;;;23.50;60.30;;;;;;5021107;28;20467;-89
2022/07/07 12:08:56;;;;;;;3.80;3.50;;;23.70;58.20;;;;;;5021224;28;20529;-90
2022/07/07 12:11:23;;;;;;;3.40;3.10;;;23.90;59.20;;;;;;5020670;28;20462;-89
2022/07/07 12:13:51;;;;;;;3.50;3.20;;;23.80;58.70;;;;;;5006120;28;20475;-89
2022/07/07 12:16:18;;;;;;;4.00;3.60;;;23.70;57.80;;;;;;4996000;28;20484;-89
2022/07/07 12:18:45;;;;;;;5.33;3.83;;;23.70;58.40;;;;;;5002759;28;20864;-88
2022/07/07 12:21:15;;;;;;;3.93;3.53;;;23.70;58.40;;;;;;5007355;28;20453;-89
2022/07/07 12:23:44;;;;;;;4.57;4.10;;;23.60;57.60;;;;;;5005080;28;20441;-89
2022/07/07 12:26:14;;;;;;;3.43;3.13;;;23.50;58.10;;;;;;5022430;28;20714;-89
2022/07/07 12:28:43;;;;;;;3.77;3.43;;;23.50;57.80;;;;;;5019062;28;20578;-91
2022/07/07 12:31:17;;;;;;;3.70;3.40;;;23.50;57.70;;;;;;5020518;28;20443;-89
2022/07/07 12:33:44;;;;;;;3.83;3.53;;;23.70;57.60;;;;;;5024661;28;20542;-90
2022/07/07 12:36:15;;;;;;;4.93;3.53;;;23.80;57.80;;;;;;5022162;28;20478;-90
2022/07/07 12:38:45;;;;;;;3.70;3.40;;;23.70;58.00;;;;;;5025655;27;20539;-90
2022/07/07 12:41:25;;;;;;;4.73;3.97;;;23.50;57.90;;;;;;5023532;28;20446;-90
2022/07/07 12:43:53;;;;;;;8.07;4.30;;;23.30;58.40;;;;;;5025774;27;20430;-91
2022/07/07 12:46:21;;;;;;;4.87;4.40;;;23.00;58.80;;;;;;5026311;28;20480;-90
2022/07/07 12:48:51;;;;;;;5.03;4.60;;;23.10;60.60;;;;;;5094974;27;21267;-91
2022/07/07 12:51:24;;;;;;;2.87;2.60;;;23.20;61.20;;;;;;5020058;28;20965;-89
2022/07/07 12:53:52;;;;;;;2.53;1.90;;;22.80;59.80;;;;;;5009716;28;20466;-89
2022/07/07 12:56:19;;;;;;;2.57;1.90;;;22.50;61.00;;;;;;5013790;27;20501;-89